createdAt,value
2022-12-31T09:02:23.995Z,75.59
2022-12-31T09:03:37.079Z,75.07
2022-12-31T09:05:11.459Z,73.92
2022-12-31T09:06:22.231Z,73.45
2022-12-31T09:07:34.160Z,72.66
2022-12-31T09:08:38.541Z,72.27
2022-12-31T09:09:52.204Z,71.66
2022-12-31T09:10:55.293Z,71.07
2022-12-31T09:11:59.763Z,71.25
2022-12-31T09:13:15.544Z,71.18
2022-12-31T09:14:35.432Z,70.64
2022-12-31T09:15:46.911Z,70.87
2022-12-31T09:17:22.941Z,71.07
2022-12-31T09:18:28.383Z,70.04
2022-12-31T09:19:36.699Z,69.41
2022-12-31T09:20:43.336Z,68.93
2022-12-31T09:21:46.202Z,67.56
2022-12-31T09:22:48.390Z,67.84
2022-12-31T09:23:49.979Z,68.70
2022-12-31T09:24:51.526Z,68.79
2022-12-31T09:26:14.500Z,68.95
2022-12-31T09:27:28.326Z,68.26
2022-12-31T09:29:00.727Z,67.92
2022-12-31T09:30:07.596Z,67.50
2022-12-31T09:31:15.783Z,66.84
2022-12-31T09:33:01.349Z,66.79
2022-12-31T09:34:22.410Z,66.22
2022-12-31T09:35:52.455Z,66.06
2022-12-31T09:36:59.600Z,65.90
2022-12-31T09:38:11.800Z,64.51
2022-12-31T09:39:22.594Z,65.15
2022-12-31T09:40:40.746Z,65.34
2022-12-31T09:42:12.253Z,64.80
2022-12-31T09:43:49.429Z,66.65
2022-12-31T09:45:05.872Z,65.98
2022-12-31T09:46:42.522Z,65.38
2022-12-31T09:48:15.361Z,66.30
2022-12-31T09:49:55.999Z,65.88
2022-12-31T09:51:25.046Z,65.97
2022-12-31T09:52:36.958Z,65.30
2022-12-31T09:53:49.903Z,64.47
2022-12-31T09:55:00.244Z,63.22
2022-12-31T09:56:23.197Z,63.02
2022-12-31T09:57:32.029Z,63.11
2022-12-31T09:58:58.102Z,63.41
2022-12-31T10:00:11.198Z,62.83
2022-12-31T10:01:28.033Z,63.53
2022-12-31T10:02:59.773Z,63.51
2022-12-31T10:04:29.816Z,63.42
2022-12-31T10:05:43.255Z,63.98
2022-12-31T10:07:17.595Z,63.51
2022-12-31T10:08:21.854Z,63.67
2022-12-31T10:09:33.313Z,62.64
2022-12-31T10:10:46.526Z,62.34
2022-12-31T10:12:12.452Z,62.33
2022-12-31T10:13:26.248Z,62.44
2022-12-31T10:15:04.927Z,62.76
2022-12-31T10:16:20.444Z,62.39
2022-12-31T10:17:35.016Z,61.17
2022-12-31T10:19:13.316Z,60.91
2022-12-31T10:20:41.582Z,61.55
2022-12-31T10:22:14.527Z,61.94
2022-12-31T10:23:32.345Z,61.37
2022-12-31T10:24:51.209Z,60.41
2022-12-31T10:26:27.727Z,58.45
2022-12-31T10:27:46.115Z,58.62
2022-12-31T10:29:21.679Z,58.98
2022-12-31T10:30:24.776Z,59.96
2022-12-31T10:31:39.142Z,60.24
2022-12-31T10:33:18.193Z,60.43
2022-12-31T10:34:45.175Z,60.16
2022-12-31T10:35:53.602Z,59.70
2022-12-31T10:37:17.494Z,59.56
2022-12-31T10:38:45.862Z,58.87
2022-12-31T10:40:04.656Z,58.40
2022-12-31T10:41:56.910Z,57.65
2022-12-31T10:43:16.609Z,57.87
2022-12-31T10:44:57.968Z,58.22
2022-12-31T10:46:22.834Z,57.36
2022-12-31T10:47:43.531Z,56.18
2022-12-31T10:49:06.247Z,56.17
2022-12-31T10:50:57.511Z,57.00
2022-12-31T10:52:19.185Z,55.95
2022-12-31T10:54:14.414Z,56.94
2022-12-31T10:55:51.989Z,56.55
2022-12-31T10:57:40.823Z,57.09
2022-12-31T10:59:16.018Z,57.01
2022-12-31T11:00:21.723Z,55.58
2022-12-31T11:01:37.854Z,55.98
2022-12-31T11:03:27.063Z,55.75
2022-12-31T11:04:47.318Z,55.82
2022-12-31T11:06:09.384Z,56.55
2022-12-31T11:07:36.486Z,58.17
2022-12-31T11:08:53.081Z,57.39
2022-12-31T11:10:13.919Z,56.31
2022-12-31T11:11:18.250Z,55.87
2022-12-31T11:12:47.001Z,56.79
2022-12-31T11:14:25.515Z,57.74
2022-12-31T11:15:29.575Z,57.45
2022-12-31T11:16:45.804Z,57.13
2022-12-31T11:18:12.295Z,56.15
2022-12-31T11:19:26.813Z,56.37
2022-12-31T11:20:49.381Z,55.98
2022-12-31T11:22:19.177Z,56.31
2022-12-31T11:23:39.207Z,56.49
2022-12-31T11:24:52.365Z,57.33
2022-12-31T11:26:24.020Z,56.90
2022-12-31T11:27:49.771Z,56.31
2022-12-31T11:28:53.596Z,56.07
2022-12-31T11:30:47.820Z,56.29
2022-12-31T11:32:07.184Z,56.20
2022-12-31T11:33:26.527Z,55.97
2022-12-31T11:35:03.186Z,56.82
2022-12-31T11:36:19.597Z,57.70
2022-12-31T11:37:53.403Z,57.47
2022-12-31T11:39:31.062Z,56.76
2022-12-31T11:40:45.022Z,56.08
2022-12-31T11:41:52.313Z,55.84
2022-12-31T11:43:00.704Z,55.90
2022-12-31T11:44:16.309Z,55.61
2022-12-31T11:45:39.440Z,55.53
2022-12-31T11:46:59.033Z,55.42
2022-12-31T11:48:30.965Z,55.48
2022-12-31T11:49:39.094Z,57.20
2022-12-31T11:50:58.887Z,56.52
2022-12-31T11:52:24.744Z,56.62
2022-12-31T11:53:46.166Z,56.00
2022-12-31T11:54:58.667Z,55.61
2022-12-31T11:56:20.965Z,56.39
2022-12-31T11:57:37.649Z,56.38
2022-12-31T11:58:45.452Z,55.46
2022-12-31T11:59:47.085Z,55.03
2022-12-31T12:01:04.719Z,55.15
2022-12-31T12:02:33.919Z,54.93
2022-12-31T12:03:39.612Z,55.01
2022-12-31T12:04:41.530Z,55.99
2022-12-31T12:05:42.963Z,55.64
2022-12-31T12:06:45.976Z,55.09
2022-12-31T12:07:49.091Z,55.37
2022-12-31T12:08:51.129Z,54.20
2022-12-31T12:09:55.512Z,53.53
2022-12-31T12:11:06.443Z,54.15
2022-12-31T12:12:07.892Z,54.37
2022-12-31T12:13:27.419Z,53.85
2022-12-31T12:14:33.456Z,54.84
2022-12-31T12:15:35.672Z,55.74
2022-12-31T12:16:37.536Z,56.42
2022-12-31T12:17:39.304Z,57.15
2022-12-31T12:18:48.241Z,57.94
2022-12-31T12:19:54.863Z,58.28
2022-12-31T12:21:12.521Z,58.81
2022-12-31T12:22:25.649Z,59.15
2022-12-31T12:23:27.804Z,59.04
2022-12-31T12:24:30.248Z,59.07
2022-12-31T12:25:41.664Z,58.64
2022-12-31T12:26:45.361Z,58.87
2022-12-31T12:27:47.240Z,58.99
2022-12-31T12:28:48.571Z,59.89
2022-12-31T12:29:50.126Z,59.93
2022-12-31T12:31:20.573Z,59.52
2022-12-31T12:32:25.552Z,58.85
2022-12-31T12:33:29.870Z,59.25
2022-12-31T12:34:36.491Z,59.62
2022-12-31T12:35:39.368Z,59.41
2022-12-31T12:36:47.035Z,59.12
2022-12-31T12:38:02.410Z,58.84
2022-12-31T12:39:05.946Z,58.80
2022-12-31T12:40:29.828Z,58.87
2022-12-31T12:41:34.775Z,58.42
2022-12-31T12:42:36.223Z,58.32
2022-12-31T12:43:38.643Z,57.88
2022-12-31T12:44:41.893Z,57.95
2022-12-31T12:45:51.788Z,57.72
2022-12-31T12:46:54.062Z,57.93
2022-12-31T12:47:59.636Z,58.08
2022-12-31T12:49:03.178Z,58.35
2022-12-31T12:50:06.549Z,57.47
2022-12-31T12:51:47.898Z,58.48
2022-12-31T12:53:13.096Z,58.44
2022-12-31T12:54:36.812Z,58.78
2022-12-31T12:56:10.753Z,58.59
2022-12-31T12:57:26.397Z,58.83
2022-12-31T12:58:48.270Z,59.01
2022-12-31T13:00:01.859Z,59.12
2022-12-31T13:01:23.792Z,59.39
2022-12-31T13:02:51.392Z,59.45
2022-12-31T13:04:35.395Z,59.23
2022-12-31T13:05:52.654Z,59.16
2022-12-31T13:07:01.338Z,58.84
2022-12-31T13:08:26.748Z,58.93
2022-12-31T13:09:30.798Z,59.50
2022-12-31T13:11:07.123Z,59.66
2022-12-31T13:13:13.357Z,59.19
2022-12-31T13:14:14.058Z,59.47
2022-12-31T13:15:37.333Z,59.47
2022-12-31T13:17:04.118Z,59.36
2022-12-31T13:18:33.271Z,59.99
2022-12-31T13:19:48.559Z,59.84
2022-12-31T13:21:03.235Z,60.30
2022-12-31T13:22:22.939Z,60.02
2022-12-31T13:23:40.466Z,59.92
2022-12-31T13:25:03.147Z,59.83
2022-12-31T13:26:18.540Z,59.64
2022-12-31T13:27:32.177Z,59.75
2022-12-31T13:28:35.427Z,60.33
2022-12-31T13:29:39.628Z,60.24
2022-12-31T13:30:48.369Z,60.51
2022-12-31T13:31:51.381Z,60.29
2022-12-31T13:33:00.341Z,60.31
2022-12-31T13:34:10.968Z,60.39
2022-12-31T13:35:38.838Z,60.29
2022-12-31T13:36:43.188Z,60.69
2022-12-31T13:37:46.887Z,60.61
2022-12-31T13:38:54.234Z,60.42
2022-12-31T13:40:03.056Z,60.22
2022-12-31T13:41:11.767Z,60.45
2022-12-31T13:42:17.125Z,60.73
2022-12-31T13:43:39.783Z,60.47
2022-12-31T13:44:51.744Z,60.33
2022-12-31T13:46:09.813Z,60.56
2022-12-31T13:47:23.756Z,60.37
2022-12-31T13:48:34.649Z,60.05
2022-12-31T13:49:57.684Z,60.39
2022-12-31T13:51:11.415Z,60.55
2022-12-31T13:52:27.313Z,60.78
2022-12-31T13:53:59.813Z,60.51
2022-12-31T13:55:13.957Z,60.73
2022-12-31T13:56:21.955Z,60.19
2022-12-31T13:57:36.464Z,60.51
2022-12-31T13:59:04.187Z,60.39
2022-12-31T14:00:14.728Z,60.53
2022-12-31T14:01:22.637Z,59.85
2022-12-31T14:02:43.459Z,60.23
2022-12-31T14:04:00.833Z,60.37
2022-12-31T14:05:16.495Z,59.90
2022-12-31T14:06:28.280Z,60.29
2022-12-31T14:07:45.172Z,60.23
2022-12-31T14:08:47.116Z,60.70
2022-12-31T14:09:48.963Z,60.57
2022-12-31T14:10:59.508Z,61.06
2022-12-31T14:12:19.255Z,60.72
2022-12-31T14:13:34.942Z,60.69
2022-12-31T14:14:49.210Z,61.00
2022-12-31T14:16:11.532Z,61.63
2022-12-31T14:17:45.571Z,61.64
